Time;durP1;ratioP1;P1;durP2;ratioP2;P2;SDS_P1;SDS_P2;PMS_P1;PMS_P2;Temp;Humidity;BMP_temperature;BMP_pressure;BME280_temperature;BME280_humidity;BME280_pressure;Samples;Min_cycle;Max_cycle;Signal;HPM_P1;HPM_P2
2022/10/27 00:00:33;;;;;;;7.43;2.10;;;;;;;;;;5065680;28;20032;-71
2022/10/27 00:02:58;;;;;;;5.13;1.88;;;;;;;;;;5067671;28;20062;-70
2022/10/27 00:05:24;;;;;;;5.70;2.15;;;;;;;;;;5067014;28;20045;-70
2022/10/27 00:07:50;;;;;;;4.95;2.25;;;;;;;;;;5067495;28;20047;-70
2022/10/27 00:10:16;;;;;;;4.80;2.03;;;;;;;;;;5066820;28;20047;-70
2022/10/27 00:12:41;;;;;;;8.77;2.17;;;;;;;;;;5067223;28;20035;-70
2022/10/27 00:15:08;;;;;;;3.55;1.60;;;;;;;;;;5066257;28;20037;-70
2022/10/27 00:17:33;;;;;;;2.95;1.77;;;;;;;;;;5066894;28;20054;-71
2022/10/27 00:19:58;;;;;;;9.65;2.00;;;;;;;;;;5067139;28;20037;-70
2022/10/27 00:22:24;;;;;;;2.83;1.60;;;;;;;;;;5048621;28;20101;-71
2022/10/27 00:24:49;;;;;;;5.25;1.60;;;;;;;;;;5045424;28;20021;-70
2022/10/27 00:27:14;;;;;;;3.00;1.42;;;;;;;;;;5046669;28;20037;-70
2022/10/27 00:29:40;;;;;;;3.92;1.88;;;;;;;;;;5047204;28;20029;-71
2022/10/27 00:32:05;;;;;;;3.53;1.60;;;;;;;;;;5047096;28;20116;-70
2022/10/27 00:34:30;;;;;;;5.38;1.90;;;;;;;;;;5045590;28;20473;-70
2022/10/27 00:36:56;;;;;;;2.85;1.50;;;;;;;;;;5046892;28;20086;-70
2022/10/27 00:39:21;;;;;;;3.17;1.42;;;;;;;;;;5047530;28;20104;-70
2022/10/27 00:41:46;;;;;;;6.90;2.03;;;;;;;;;;5046811;28;20044;-70
2022/10/27 00:44:29;;;;;;;3.38;1.90;;;;;;;;;;5046960;28;20060;-70
2022/10/27 00:46:55;;;;;;;3.13;1.55;;;;;;;;;;5044765;28;20790;-70
2022/10/27 00:49:33;;;;;;;2.80;1.50;;;;;;;;;;5047266;28;20039;-70
2022/10/27 00:52:03;;;;;;;4.05;1.90;;;;;;;;;;5046775;28;20029;-70
2022/10/27 00:54:35;;;;;;;4.60;1.55;;;;;;;;;;5047874;28;20029;-70
2022/10/27 00:57:01;;;;;;;4.18;1.80;;;;;;;;;;5046203;28;20190;-70
2022/10/27 00:59:26;;;;;;;2.42;1.55;;;;;;;;;;5047324;28;20113;-71
2022/10/27 01:01:52;;;;;;;3.10;1.50;;;;;;;;;;5046793;28;20033;-71
2022/10/27 01:04:33;;;;;;;5.45;1.75;;;;;;;;;;5044542;28;20533;-71
2022/10/27 01:07:00;;;;;;;4.28;1.70;;;;;;;;;;5045206;28;20130;-70
2022/10/27 01:09:26;;;;;;;5.45;1.73;;;;;;;;;;5047083;28;20045;-70
2022/10/27 01:11:51;;;;;;;4.07;1.60;;;;;;;;;;5046267;28;20057;-70
2022/10/27 01:14:16;;;;;;;2.30;1.50;;;;;;;;;;5046940;28;20152;-70
2022/10/27 01:16:53;;;;;;;2.60;1.58;;;;;;;;;;5042521;28;20430;-70
2022/10/27 01:19:56;;;;;;;2.90;1.60;;;;;;;;;;5026641;28;20042;-70
2022/10/27 01:22:34;;;;;;;3.97;1.58;;;;;;;;;;5030607;28;20167;-70
2022/10/27 01:25:21;;;;;;;2.70;1.40;;;;;;;;;;5030931;28;20036;-70
2022/10/27 01:27:49;;;;;;;3.55;1.63;;;;;;;;;;5059684;28;20036;-70
2022/10/27 01:30:18;;;;;;;3.47;1.73;;;;;;;;;;5069887;28;20110;-70
2022/10/27 01:33:09;;;;;;;3.60;1.48;;;;;;;;;;5068615;28;20084;-70
2022/10/27 01:35:47;;;;;;;3.92;1.77;;;;;;;;;;5056687;28;20133;-70
2022/10/27 01:38:28;;;;;;;2.55;1.60;;;;;;;;;;5030584;28;20148;-70
2022/10/27 01:41:05;;;;;;;4.57;1.70;;;;;;;;;;5043937;28;20045;-70
2022/10/27 01:43:32;;;;;;;2.83;1.63;;;;;;;;;;5044163;28;20449;-70
2022/10/27 01:45:58;;;;;;;3.88;1.80;;;;;;;;;;5033857;28;20087;-70
2022/10/27 01:48:24;;;;;;;3.65;1.55;;;;;;;;;;5052659;28;20517;-71
2022/10/27 01:50:49;;;;;;;1.75;1.40;;;;;;;;;;5048484;28;20037;-71
2022/10/27 01:53:15;;;;;;;4.30;1.40;;;;;;;;;;5050015;28;20055;-71
2022/10/27 01:56:02;;;;;;;4.70;1.50;;;;;;;;;;5050041;28;20635;-71
2022/10/27 01:58:30;;;;;;;3.33;1.35;;;;;;;;;;5049523;28;20025;-71
2022/10/27 02:01:17;;;;;;;3.80;1.60;;;;;;;;;;5049807;28;20490;-70
2022/10/27 02:03:52;;;;;;;2.58;1.60;;;;;;;;;;5050710;28;20035;-71
2022/10/27 02:06:54;;;;;;;3.35;1.40;;;;;;;;;;5058692;28;20036;-70
2022/10/27 02:09:38;;;;;;;4.95;1.17;;;;;;;;;;5061073;28;20044;-71
2022/10/27 02:12:09;;;;;;;5.05;1.13;;;;;;;;;;5069568;28;20033;-71
2022/10/27 02:14:35;;;;;;;4.38;1.20;;;;;;;;;;5044779;28;20033;-70
2022/10/27 02:17:02;;;;;;;2.95;1.20;;;;;;;;;;5031899;28;20041;-70
2022/10/27 02:19:35;;;;;;;3.80;0.93;;;;;;;;;;5029583;28;20026;-70
2022/10/27 02:22:01;;;;;;;2.45;1.02;;;;;;;;;;5042022;28;20035;-70
2022/10/27 02:24:27;;;;;;;2.95;0.90;;;;;;;;;;5030131;28;20147;-70
2022/10/27 02:27:01;;;;;;;1.85;0.90;;;;;;;;;;5029591;28;20104;-70
2022/10/27 02:29:36;;;;;;;2.70;1.00;;;;;;;;;;5028860;28;20033;-70
2022/10/27 02:32:05;;;;;;;6.47;1.10;;;;;;;;;;5028777;28;20613;-71
2022/10/27 02:34:32;;;;;;;1.58;1.10;;;;;;;;;;5029187;28;20040;-71
2022/10/27 02:36:58;;;;;;;3.40;0.98;;;;;;;;;;5049390;28;20036;-70
2022/10/27 02:39:23;;;;;;;1.33;0.70;;;;;;;;;;5049641;28;20521;-71
2022/10/27 02:41:49;;;;;;;2.28;1.08;;;;;;;;;;5048763;28;20037;-70
2022/10/27 02:44:14;;;;;;;1.70;1.00;;;;;;;;;;5048658;28;20029;-70
2022/10/27 02:46:39;;;;;;;2.15;0.80;;;;;;;;;;5047669;28;20051;-70
2022/10/27 02:49:05;;;;;;;0.88;0.73;;;;;;;;;;5054661;28;20494;-71
2022/10/27 02:51:30;;;;;;;2.72;1.20;;;;;;;;;;5048054;28;20017;-71
2022/10/27 02:53:55;;;;;;;3.85;0.68;;;;;;;;;;5045291;28;20057;-70
2022/10/27 02:56:20;;;;;;;4.32;1.20;;;;;;;;;;5031039;28;20037;-71
2022/10/27 02:58:46;;;;;;;3.50;1.17;;;;;;;;;;5029212;28;20021;-70
2022/10/27 03:01:11;;;;;;;3.65;1.60;;;;;;;;;;5036757;28;20414;-70
2022/10/27 03:03:36;;;;;;;3.88;1.10;;;;;;;;;;5049280;28;20146;-71
2022/10/27 03:06:02;;;;;;;1.73;0.90;;;;;;;;;;5048945;28;20093;-71
2022/10/27 03:08:27;;;;;;;2.42;1.42;;;;;;;;;;5048545;28;20040;-70
2022/10/27 03:10:53;;;;;;;3.08;1.23;;;;;;;;;;5048978;28;20083;-70
2022/10/27 03:13:18;;;;;;;2.45;1.20;;;;;;;;;;5048728;28;20679;-71
2022/10/27 03:15:44;;;;;;;2.45;0.90;;;;;;;;;;5041153;28;20032;-70
2022/10/27 03:18:09;;;;;;;1.65;1.20;;;;;;;;;;5045327;28;20090;-70
2022/10/27 03:20:35;;;;;;;4.15;1.10;;;;;;;;;;5047203;28;20041;-71
2022/10/27 03:23:00;;;;;;;1.98;1.23;;;;;;;;;;5046820;28;20041;-70
2022/10/27 03:25:25;;;;;;;7.22;1.33;;;;;;;;;;5043665;28;20025;-71
2022/10/27 03:27:51;;;;;;;2.50;1.30;;;;;;;;;;5028764;28;20025;-71
2022/10/27 03:30:16;;;;;;;3.13;1.23;;;;;;;;;;5027895;28;20030;-71
2022/10/27 03:32:47;;;;;;;5.60;1.33;;;;;;;;;;5028501;28;20026;-70
2022/10/27 03:35:12;;;;;;;3.83;1.27;;;;;;;;;;5043530;28;20034;-70
2022/10/27 03:37:38;;;;;;;1.35;1.20;;;;;;;;;;5048755;28;20044;-70
2022/10/27 03:40:03;;;;;;;3.13;1.38;;;;;;;;;;5048385;28;20029;-70
2022/10/27 03:42:29;;;;;;;2.75;1.30;;;;;;;;;;5048323;28;20017;-70
2022/10/27 03:44:54;;;;;;;3.08;1.27;;;;;;;;;;5042085;28;20053;-70
2022/10/27 03:47:19;;;;;;;4.13;1.35;;;;;;;;;;5043182;28;20090;-70
2022/10/27 03:49:44;;;;;;;1.77;1.10;;;;;;;;;;5047488;28;20060;-70
2022/10/27 03:52:10;;;;;;;2.63;1.02;;;;;;;;;;5048028;28;20036;-70
2022/10/27 03:54:35;;;;;;;2.00;1.30;;;;;;;;;;5048264;28;20092;-71
2022/10/27 03:57:00;;;;;;;2.88;1.20;;;;;;;;;;5047507;28;20033;-70
2022/10/27 03:59:26;;;;;;;3.25;1.27;;;;;;;;;;5047983;28;20055;-70
2022/10/27 04:01:51;;;;;;;2.72;1.40;;;;;;;;;;5051734;28;20127;-71
2022/10/27 04:04:16;;;;;;;2.58;1.38;;;;;;;;;;5031460;28;20758;-71
2022/10/27 04:06:42;;;;;;;2.22;1.10;;;;;;;;;;5028329;28;20100;-71
2022/10/27 04:09:07;;;;;;;2.88;1.40;;;;;;;;;;5027481;28;20029;-70
2022/10/27 04:11:32;;;;;;;3.17;1.13;;;;;;;;;;5038823;28;20537;-70
2022/10/27 04:13:58;;;;;;;3.22;1.23;;;;;;;;;;5067343;28;20051;-70
2022/10/27 04:16:23;;;;;;;1.55;0.98;;;;;;;;;;5067491;28;20037;-71
2022/10/27 04:18:48;;;;;;;2.28;1.10;;;;;;;;;;5067786;28;20127;-70
2022/10/27 04:21:14;;;;;;;4.47;1.23;;;;;;;;;;5067170;28;20115;-70
2022/10/27 04:23:40;;;;;;;4.20;1.20;;;;;;;;;;5067004;28;20039;-71
2022/10/27 04:26:05;;;;;;;4.05;1.50;;;;;;;;;;5067609;28;20020;-71
2022/10/27 04:28:31;;;;;;;3.00;1.52;;;;;;;;;;5067082;28;20774;-70
2022/10/27 04:30:56;;;;;;;5.78;1.42;;;;;;;;;;5067167;28;20021;-70
2022/10/27 04:33:22;;;;;;;1.52;0.93;;;;;;;;;;5067341;28;20069;-71
2022/10/27 04:35:47;;;;;;;1.75;1.02;;;;;;;;;;5067185;28;20034;-71
2022/10/27 04:38:12;;;;;;;2.38;1.20;;;;;;;;;;5049238;28;20518;-70
2022/10/27 04:40:38;;;;;;;3.58;1.33;;;;;;;;;;5048539;28;20573;-71
2022/10/27 04:43:03;;;;;;;6.15;1.23;;;;;;;;;;5046926;28;20044;-71
2022/10/27 04:45:28;;;;;;;2.20;1.20;;;;;;;;;;5045747;28;20090;-70
2022/10/27 04:47:54;;;;;;;6.35;1.30;;;;;;;;;;5046693;28;20037;-70
2022/10/27 04:50:19;;;;;;;2.53;1.27;;;;;;;;;;5045398;28;20053;-70
2022/10/27 04:53:02;;;;;;;1.50;1.00;;;;;;;;;;5055109;28;20562;-70
2022/10/27 04:55:30;;;;;;;1.05;0.93;;;;;;;;;;5044820;28;20064;-70
2022/10/27 04:57:55;;;;;;;2.38;1.20;;;;;;;;;;5046014;28;20604;-70
2022/10/27 05:00:21;;;;;;;3.72;1.42;;;;;;;;;;5045001;28;20033;-70
2022/10/27 05:02:54;;;;;;;5.82;1.65;;;;;;;;;;5046557;28;20466;-70
2022/10/27 05:05:20;;;;;;;1.90;1.08;;;;;;;;;;5045245;28;20048;-71
2022/10/27 05:07:53;;;;;;;3.03;1.20;;;;;;;;;;5029741;28;20120;-70
2022/10/27 05:10:19;;;;;;;2.47;1.00;;;;;;;;;;5036921;28;20037;-70
2022/10/27 05:12:44;;;;;;;2.28;1.20;;;;;;;;;;5047316;28;20024;-70
2022/10/27 05:15:09;;;;;;;1.40;1.00;;;;;;;;;;5046742;28;20494;-70
2022/10/27 05:17:36;;;;;;;6.80;1.55;;;;;;;;;;5038068;28;20073;-70
2022/10/27 05:20:02;;;;;;;2.97;0.93;;;;;;;;;;5026897;28;20056;-71
2022/10/27 05:22:27;;;;;;;1.85;1.10;;;;;;;;;;5025106;28;20515;-70
2022/10/27 05:24:52;;;;;;;2.70;1.00;;;;;;;;;;5026664;28;20968;-70
2022/10/27 05:27:18;;;;;;;2.50;1.20;;;;;;;;;;5027261;28;20025;-70
2022/10/27 05:29:43;;;;;;;1.40;0.82;;;;;;;;;;5026216;28;20048;-70
2022/10/27 05:32:09;;;;;;;5.25;1.08;;;;;;;;;;5026698;28;20057;-71
2022/10/27 05:34:34;;;;;;;1.75;1.05;;;;;;;;;;5026937;28;20037;-71
2022/10/27 05:36:59;;;;;;;2.25;1.17;;;;;;;;;;5025981;28;20029;-70
2022/10/27 05:39:25;;;;;;;1.60;0.82;;;;;;;;;;5040950;28;20032;-71
2022/10/27 05:41:50;;;;;;;3.30;1.05;;;;;;;;;;5044552;28;20033;-71
2022/10/27 05:44:15;;;;;;;4.75;1.25;;;;;;;;;;5042813;28;20036;-71
2022/10/27 05:46:41;;;;;;;2.10;1.10;;;;;;;;;;5045469;28;20040;-71
2022/10/27 05:49:06;;;;;;;1.92;1.10;;;;;;;;;;5043463;28;20456;-70
2022/10/27 05:51:31;;;;;;;5.65;1.30;;;;;;;;;;5046415;28;20029;-71
2022/10/27 05:53:57;;;;;;;1.67;0.93;;;;;;;;;;5052283;28;20128;-70
2022/10/27 05:56:22;;;;;;;1.45;0.82;;;;;;;;;;5066350;28;20050;-70
2022/10/27 05:58:48;;;;;;;2.08;0.90;;;;;;;;;;5066346;28;20048;-70
2022/10/27 06:01:13;;;;;;;1.33;0.95;;;;;;;;;;5035027;28;20036;-70
2022/10/27 06:03:38;;;;;;;1.05;0.65;;;;;;;;;;5044648;28;20063;-70
2022/10/27 06:06:04;;;;;;;3.95;1.00;;;;;;;;;;5044859;28;20116;-70
2022/10/27 06:08:29;;;;;;;1.73;1.05;;;;;;;;;;5049227;28;20033;-70
2022/10/27 06:10:55;;;;;;;1.50;0.90;;;;;;;;;;5050269;28;20033;-70
2022/10/27 06:13:20;;;;;;;2.28;0.90;;;;;;;;;;5046376;28;20025;-71
2022/10/27 06:15:46;;;;;;;3.35;0.90;;;;;;;;;;5039924;28;20074;-71
2022/10/27 06:18:12;;;;;;;1.27;0.68;;;;;;;;;;5035411;28;20052;-72
2022/10/27 06:20:37;;;;;;;1.20;0.63;;;;;;;;;;5048591;28;20597;-71
2022/10/27 06:23:03;;;;;;;1.75;0.90;;;;;;;;;;5047081;28;20167;-71
2022/10/27 06:25:28;;;;;;;1.25;0.77;;;;;;;;;;5049723;28;20530;-71
2022/10/27 06:27:54;;;;;;;3.00;1.20;;;;;;;;;;5049173;28;20021;-71
2022/10/27 06:30:19;;;;;;;3.28;1.00;;;;;;;;;;5047557;28;20135;-71
2022/10/27 06:32:45;;;;;;;3.00;1.00;;;;;;;;;;5050547;28;20064;-71
2022/10/27 06:35:10;;;;;;;1.52;0.93;;;;;;;;;;5049972;28;20123;-71
2022/10/27 06:37:40;;;;;;;1.70;0.98;;;;;;;;;;5047738;28;20035;-71
2022/10/27 06:40:06;;;;;;;1.63;1.05;;;;;;;;;;5049097;28;20086;-71
2022/10/27 06:42:34;;;;;;;6.88;1.10;;;;;;;;;;5046304;28;20671;-71
2022/10/27 06:45:00;;;;;;;2.65;0.77;;;;;;;;;;5039215;28;20054;-71
2022/10/27 06:47:25;;;;;;;4.00;1.30;;;;;;;;;;5032042;28;20029;-71
2022/10/27 06:49:50;;;;;;;1.83;1.00;;;;;;;;;;5037803;28;20384;-70
2022/10/27 06:52:15;;;;;;;2.70;1.08;;;;;;;;;;5041925;28;20067;-71
2022/10/27 06:54:42;;;;;;;1.67;1.00;;;;;;;;;;5047238;28;20029;-71
2022/10/27 06:57:07;;;;;;;3.72;0.77;;;;;;;;;;5037025;28;20036;-71
2022/10/27 06:59:33;;;;;;;1.75;0.80;;;;;;;;;;5043839;28;20430;-71
2022/10/27 07:01:58;;;;;;;1.23;0.70;;;;;;;;;;5042325;28;20045;-72
2022/10/27 07:04:23;;;;;;;1.85;1.02;;;;;;;;;;5048825;28;20068;-71
2022/10/27 07:06:49;;;;;;;3.38;0.93;;;;;;;;;;5047663;28;20037;-72
2022/10/27 07:09:14;;;;;;;3.13;1.23;;;;;;;;;;5048495;28;20035;-71
2022/10/27 07:11:39;;;;;;;3.10;0.90;;;;;;;;;;5048002;28;20037;-71
2022/10/27 07:14:05;;;;;;;4.70;0.90;;;;;;;;;;5047492;28;20037;-72
2022/10/27 07:16:30;;;;;;;5.93;1.10;;;;;;;;;;5046878;28;20044;-71
2022/10/27 07:18:55;;;;;;;2.60;0.82;;;;;;;;;;5048889;28;20029;-71
2022/10/27 07:21:20;;;;;;;3.33;1.13;;;;;;;;;;5035229;28;20060;-70
2022/10/27 07:23:46;;;;;;;2.25;1.10;;;;;;;;;;5059037;28;20544;-70
2022/10/27 07:26:11;;;;;;;5.25;1.30;;;;;;;;;;5069608;28;20547;-70
2022/10/27 07:28:36;;;;;;;2.75;0.90;;;;;;;;;;5069165;28;20075;-70
2022/10/27 07:31:02;;;;;;;3.38;1.10;;;;;;;;;;5066428;28;20028;-70
2022/10/27 07:33:27;;;;;;;1.88;0.90;;;;;;;;;;5068741;28;20020;-70
2022/10/27 07:35:52;;;;;;;5.45;1.15;;;;;;;;;;5068301;28;20056;-70
2022/10/27 07:38:18;;;;;;;2.28;1.25;;;;;;;;;;5066992;28;20697;-70
2022/10/27 07:40:44;;;;;;;1.20;1.00;;;;;;;;;;5049335;28;20498;-70
2022/10/27 07:43:10;;;;;;;4.47;1.33;;;;;;;;;;5048276;28;20109;-70
2022/10/27 07:45:38;;;;;;;2.33;0.95;;;;;;;;;;5044014;28;20077;-71
2022/10/27 07:48:04;;;;;;;3.25;1.30;;;;;;;;;;5032627;28;20156;-69
2022/10/27 07:50:32;;;;;;;6.53;1.50;;;;;;;;;;5048107;28;20484;-69
2022/10/27 07:52:59;;;;;;;2.92;1.13;;;;;;;;;;5034356;28;20124;-69
2022/10/27 07:55:26;;;;;;;6.88;1.40;;;;;;;;;;5042551;28;20536;-69
2022/10/27 07:57:58;;;;;;;3.83;1.38;;;;;;;;;;5049118;28;20040;-69
2022/10/27 08:00:23;;;;;;;3.75;1.50;;;;;;;;;;5048428;28;20091;-69
2022/10/27 08:02:49;;;;;;;4.13;1.30;;;;;;;;;;5048114;28;20056;-69
2022/10/27 08:05:14;;;;;;;2.20;1.50;;;;;;;;;;5046392;28;20040;-69
2022/10/27 08:07:39;;;;;;;4.97;1.60;;;;;;;;;;5048674;28;20041;-69
2022/10/27 08:10:05;;;;;;;2.92;1.50;;;;;;;;;;5048258;28;20521;-69
2022/10/27 08:12:30;;;;;;;2.13;1.42;;;;;;;;;;5047703;28;20039;-69
2022/10/27 08:14:56;;;;;;;6.65;1.75;;;;;;;;;;5044409;28;20033;-69
2022/10/27 08:17:22;;;;;;;4.30;1.90;;;;;;;;;;5038737;28;20068;-69
2022/10/27 08:19:47;;;;;;;3.38;1.45;;;;;;;;;;5042806;28;20045;-69
2022/10/27 08:22:12;;;;;;;4.03;1.65;;;;;;;;;;5042500;28;20048;-69
2022/10/27 08:24:38;;;;;;;5.88;1.58;;;;;;;;;;5046958;28;20040;-69
2022/10/27 08:27:03;;;;;;;7.63;1.85;;;;;;;;;;5049408;28;20501;-69
2022/10/27 08:29:28;;;;;;;2.95;1.40;;;;;;;;;;5047166;28;20611;-69
2022/10/27 08:31:54;;;;;;;4.30;1.70;;;;;;;;;;5048134;28;20048;-69
2022/10/27 08:34:19;;;;;;;4.18;1.50;;;;;;;;;;5047990;28;20091;-69
2022/10/27 08:36:44;;;;;;;3.42;1.52;;;;;;;;;;5047707;28;20041;-69
2022/10/27 08:39:11;;;;;;;2.28;1.40;;;;;;;;;;5048152;28;20029;-68
2022/10/27 08:41:56;;;;;;;3.20;1.40;;;;;;;;;;5048489;28;20155;-69
2022/10/27 08:44:26;;;;;;;4.53;1.98;;;;;;;;;;5047455;28;20057;-69
2022/10/27 08:46:56;;;;;;;2.67;1.15;;;;;;;;;;5047657;28;20514;-69
2022/10/27 08:49:28;;;;;;;5.97;1.50;;;;;;;;;;5047882;28;20098;-69
2022/10/27 08:51:58;;;;;;;7.20;1.80;;;;;;;;;;5047851;28;20048;-69
2022/10/27 08:54:26;;;;;;;4.38;1.88;;;;;;;;;;5045414;28;20460;-69
2022/10/27 08:56:53;;;;;;;5.88;1.70;;;;;;;;;;5046985;28;20087;-69
2022/10/27 08:59:20;;;;;;;9.88;1.52;;;;;;;;;;5046710;28;20033;-69
2022/10/27 09:01:56;;;;;;;4.15;2.03;;;;;;;;;;5046617;28;20120;-69
2022/10/27 09:04:37;;;;;;;4.10;1.80;;;;;;;;;;5037879;28;20672;-69
2022/10/27 09:07:17;;;;;;;3.63;1.63;;;;;;;;;;5037508;28;20437;-68
2022/10/27 09:09:55;;;;;;;6.18;2.20;;;;;;;;;;5040204;28;20045;-69
2022/10/27 09:12:39;;;;;;;6.38;2.53;;;;;;;;;;5047303;28;20581;-69
2022/10/27 09:15:37;;;;;;;4.70;2.42;;;;;;;;;;5042287;28;20591;-69
2022/10/27 09:18:18;;;;;;;2.90;1.80;;;;;;;;;;5046799;28;20181;-69
2022/10/27 09:20:46;;;;;;;7.13;2.70;;;;;;;;;;5040002;28;20032;-70
2022/10/27 09:23:16;;;;;;;6.25;2.42;;;;;;;;;;5047660;28;20048;-69
2022/10/27 09:25:44;;;;;;;5.72;2.55;;;;;;;;;;5047617;28;20485;-69
2022/10/27 09:28:19;;;;;;;11.30;3.35;;;;;;;;;;5040694;28;20060;-69
2022/10/27 09:30:48;;;;;;;10.05;3.05;;;;;;;;;;5028131;28;20068;-68
2022/10/27 09:33:20;;;;;;;4.78;2.30;;;;;;;;;;5028747;28;20021;-68
2022/10/27 09:35:46;;;;;;;5.05;2.60;;;;;;;;;;5029095;28;20498;-69
2022/10/27 09:38:14;;;;;;;6.97;2.60;;;;;;;;;;5035471;28;20096;-69
2022/10/27 09:40:40;;;;;;;5.05;2.72;;;;;;;;;;5042593;28;20083;-69
2022/10/27 09:43:07;;;;;;;5.80;2.30;;;;;;;;;;5050196;28;20040;-69
2022/10/27 09:45:32;;;;;;;8.82;2.97;;;;;;;;;;5049604;28;20601;-69
2022/10/27 09:48:09;;;;;;;3.88;1.70;;;;;;;;;;5058443;28;20024;-69
2022/10/27 09:50:53;;;;;;;7.65;2.47;;;;;;;;;;5049460;28;20540;-69
2022/10/27 09:53:39;;;;;;;5.93;2.80;;;;;;;;;;5051550;28;20029;-69
2022/10/27 09:56:06;;;;;;;6.70;2.95;;;;;;;;;;5049722;28;20037;-69
2022/10/27 09:58:45;;;;;;;6.20;2.97;;;;;;;;;;5050800;28;20033;-69
2022/10/27 10:01:11;;;;;;;11.05;3.75;;;;;;;;;;5050491;28;20037;-69
2022/10/27 10:03:38;;;;;;;9.77;3.65;;;;;;;;;;5048685;28;20033;-68
2022/10/27 10:06:21;;;;;;;8.40;4.18;;;;;;;;;;5050309;28;20064;-69
2022/10/27 10:08:47;;;;;;;;;;;;;;;;;;5050554;28;20041;-68
2022/10/27 10:11:21;;;;;;;6.95;3.58;;;;;;;;;;5043844;28;19913;-69
2022/10/27 10:14:00;;;;;;;9.82;3.92;;;;;;;;;;5030919;28;20030;-70
2022/10/27 10:16:27;;;;;;;10.38;3.70;;;;;;;;;;5029946;28;20033;-70
2022/10/27 10:19:06;;;;;;;5.95;2.45;;;;;;;;;;5029211;28;20587;-70
2022/10/27 10:21:56;;;;;;;9.38;2.45;;;;;;;;;;5028890;28;20593;-70
2022/10/27 10:24:28;;;;;;;8.93;2.60;;;;;;;;;;5030165;28;20029;-69
2022/10/27 10:26:55;;;;;;;8.40;2.55;;;;;;;;;;5030237;28;20029;-70
2022/10/27 10:29:31;;;;;;;8.85;2.53;;;;;;;;;;5027710;28;20125;-70
2022/10/27 10:32:14;;;;;;;8.20;2.65;;;;;;;;;;5030241;28;20030;-70
2022/10/27 10:34:42;;;;;;;13.20;2.80;;;;;;;;;;5029995;28;20037;-69
2022/10/27 10:37:42;;;;;;;8.85;3.17;;;;;;;;;;5027850;28;20107;-69
2022/10/27 10:40:13;;;;;;;7.85;2.95;;;;;;;;;;5041859;28;20040;-69
2022/10/27 10:42:42;;;;;;;7.13;2.60;;;;;;;;;;5049490;28;20037;-69
2022/10/27 10:45:20;;;;;;;6.72;2.58;;;;;;;;;;5039466;28;20084;-67
2022/10/27 10:47:47;;;;;;;12.35;2.70;;;;;;;;;;5046598;28;20047;-69
2022/10/27 10:50:13;;;;;;;11.68;2.60;;;;;;;;;;5030701;28;20033;-69
2022/10/27 10:52:43;;;;;;;6.88;2.40;;;;;;;;;;5028912;28;20033;-69
2022/10/27 10:55:33;;;;;;;4.53;2.55;;;;;;;;;;5029466;28;20087;-69
2022/10/27 10:57:59;;;;;;;5.43;2.40;;;;;;;;;;5023692;28;20046;-69
2022/10/27 11:00:26;;;;;;;5.70;2.80;;;;;;;;;;5029553;28;20068;-69
2022/10/27 11:02:59;;;;;;;5.88;2.40;;;;;;;;;;5028179;28;20033;-69
2022/10/27 11:05:28;;;;;;;;;;;;;;;;;;5029790;28;20045;-69
2022/10/27 11:07:53;;;;;;;6.70;2.72;;;;;;;;;;5046565;28;19995;-69
2022/10/27 11:10:26;;;;;;;5.28;2.30;;;;;;;;;;5049207;28;20127;-69
2022/10/27 11:13:14;;;;;;;4.50;1.90;;;;;;;;;;5049138;28;20036;-69
2022/10/27 11:15:51;;;;;;;6.32;2.13;;;;;;;;;;5048725;28;20060;-69
2022/10/27 11:18:24;;;;;;;6.55;2.05;;;;;;;;;;5049101;28;20461;-69
2022/10/27 11:20:56;;;;;;;6.97;2.13;;;;;;;;;;5042725;28;20483;-69
2022/10/27 11:23:30;;;;;;;7.78;2.60;;;;;;;;;;5027879;28;20040;-69
2022/10/27 11:25:58;;;;;;;4.88;1.85;;;;;;;;;;5027308;28;20605;-69
2022/10/27 11:29:01;;;;;;;7.97;2.63;;;;;;;;;;5028003;28;21123;-67
2022/10/27 11:32:17;;;;;;;6.05;2.20;;;;;;;;;;5065575;28;20730;-69
2022/10/27 11:35:00;;;;;;;8.23;2.50;;;;;;;;;;5045748;28;20045;-69
2022/10/27 11:37:41;;;;;;;7.95;2.20;;;;;;;;;;5045970;28;20049;-69
2022/10/27 11:40:12;;;;;;;7.30;2.30;;;;;;;;;;5049675;28;20120;-69
2022/10/27 11:42:49;;;;;;;5.45;2.13;;;;;;;;;;5044782;28;20095;-69
2022/10/27 11:45:23;;;;;;;5.55;2.70;;;;;;;;;;5046190;28;20040;-69
2022/10/27 11:47:54;;;;;;;4.10;2.08;;;;;;;;;;5049028;28;20027;-69
2022/10/27 11:50:45;;;;;;;6.45;1.90;;;;;;;;;;5048210;28;20037;-68
2022/10/27 11:53:11;;;;;;;5.13;2.35;;;;;;;;;;5030735;28;20045;-69
2022/10/27 11:56:21;;;;;;;9.07;2.38;;;;;;;;;;5042378;28;20044;-69
2022/10/27 11:58:55;;;;;;;4.70;2.05;;;;;;;;;;5012264;28;20030;-69
2022/10/27 12:01:51;;;;;;;5.28;1.92;;;;;;;;;;5021068;28;20038;-69
2022/10/27 12:04:34;;;;;;;8.27;2.03;;;;;;;;;;5040776;28;20033;-68
2022/10/27 12:07:12;;;;;;;6.28;2.35;;;;;;;;;;5045394;28;20059;-69
2022/10/27 12:10:06;;;;;;;6.03;2.47;;;;;;;;;;5047420;28;20537;-69
2022/10/27 12:12:34;;;;;;;6.38;2.22;;;;;;;;;;5045768;28;20164;-69
2022/10/27 12:15:02;;;;;;;5.22;2.33;;;;;;;;;;5047183;28;20021;-68
2022/10/27 12:17:39;;;;;;;5.60;2.15;;;;;;;;;;5045238;28;20059;-69
2022/10/27 12:20:09;;;;;;;9.25;2.20;;;;;;;;;;5032051;28;20595;-69
2022/10/27 12:22:48;;;;;;;6.13;2.17;;;;;;;;;;5046848;28;20064;-69
2022/10/27 12:25:20;;;;;;;4.10;2.00;;;;;;;;;;5048038;28;20036;-69
2022/10/27 12:27:50;;;;;;;7.28;2.33;;;;;;;;;;5047912;28;20029;-69
2022/10/27 12:30:20;;;;;;;5.53;2.20;;;;;;;;;;5050191;28;20032;-68
2022/10/27 12:33:08;;;;;;;4.82;2.22;;;;;;;;;;5068134;28;20020;-69
2022/10/27 12:35:43;;;;;;;10.10;2.40;;;;;;;;;;5066262;28;20040;-70
2022/10/27 12:38:21;;;;;;;5.15;2.15;;;;;;;;;;5067895;28;20036;-70
2022/10/27 12:41:05;;;;;;;5.78;2.22;;;;;;;;;;5047909;28;20082;-70
2022/10/27 12:43:39;;;;;;;5.97;2.05;;;;;;;;;;5046897;28;20518;-70
2022/10/27 12:46:19;;;;;;;4.85;2.20;;;;;;;;;;5047488;28;20131;-70
2022/10/27 12:49:02;;;;;;;6.43;2.40;;;;;;;;;;5047588;28;20151;-70
2022/10/27 12:51:32;;;;;;;;;;;;;;;;;;5042632;28;20052;-70
2022/10/27 12:54:29;;;;;;;5.78;2.40;;;;;;;;;;5047906;28;19915;-70
2022/10/27 12:57:11;;;;;;;4.57;2.25;;;;;;;;;;5047642;28;20045;-70
2022/10/27 12:59:58;;;;;;;6.93;2.20;;;;;;;;;;5045848;28;20048;-70
2022/10/27 13:02:29;;;;;;;6.63;2.50;;;;;;;;;;5047146;28;20481;-70
2022/10/27 13:05:00;;;;;;;11.02;2.85;;;;;;;;;;5052043;28;20108;-70
2022/10/27 13:07:44;;;;;;;10.73;2.67;;;;;;;;;;5066994;28;20047;-70
2022/10/27 13:10:32;;;;;;;6.80;2.15;;;;;;;;;;5066868;28;20535;-70
2022/10/27 13:13:22;;;;;;;4.75;2.28;;;;;;;;;;5047933;28;20123;-78
2022/10/27 13:16:15;;;;;;;6.85;2.60;;;;;;;;;;5028158;28;20025;-77
2022/10/27 13:18:55;;;;;;;6.68;3.40;;;;;;;;;;5031786;28;20041;-74
2022/10/27 13:21:29;;;;;;;6.50;2.45;;;;;;;;;;5032242;28;20561;-75
2022/10/27 13:23:59;;;;;;;;;;;;;;;;;;5032332;28;20026;-81
2022/10/27 13:26:29;;;;;;;9.60;2.67;;;;;;;;;;5031575;28;19913;-71
2022/10/27 13:29:03;;;;;;;6.72;2.88;;;;;;;;;;5030790;28;20042;-78
2022/10/27 13:31:28;;;;;;;7.65;2.63;;;;;;;;;;5028984;28;20049;-75
2022/10/27 13:34:02;;;;;;;8.65;2.83;;;;;;;;;;5035363;28;20042;-80
2022/10/27 13:36:28;;;;;;;6.07;2.58;;;;;;;;;;5030971;28;20087;-73
2022/10/27 13:39:12;;;;;;;6.03;2.70;;;;;;;;;;5035092;28;20020;-79
2022/10/27 13:41:48;;;;;;;;;;;;;;;;;;5050507;28;20526;-76
2022/10/27 13:44:34;;;;;;;8.30;3.00;;;;;;;;;;5047096;28;19913;-78
2022/10/27 13:47:02;;;;;;;8.25;2.58;;;;;;;;;;5035149;28;20042;-83
2022/10/27 13:49:52;;;;;;;4.10;2.47;;;;;;;;;;5048329;28;20044;-78
2022/10/27 13:52:20;;;;;;;3.35;2.58;;;;;;;;;;5045802;28;20041;-76
2022/10/27 13:54:56;;;;;;;11.00;3.15;;;;;;;;;;5051189;28;20032;-77
2022/10/27 13:57:43;;;;;;;7.22;2.92;;;;;;;;;;5051371;28;20490;-74
2022/10/27 14:00:14;;;;;;;11.57;2.83;;;;;;;;;;5050591;28;20456;-73
2022/10/27 14:02:53;;;;;;;6.18;2.67;;;;;;;;;;5050821;28;20052;-77
2022/10/27 14:05:30;;;;;;;7.03;2.70;;;;;;;;;;5050989;28;20090;-71
2022/10/27 14:07:55;;;;;;;5.43;2.72;;;;;;;;;;5050171;28;20041;-76
2022/10/27 14:10:21;;;;;;;5.40;2.65;;;;;;;;;;5050889;28;20759;-74
2022/10/27 14:12:47;;;;;;;8.65;2.85;;;;;;;;;;5049411;28;20029;-74
2022/10/27 14:15:31;;;;;;;8.05;3.00;;;;;;;;;;5050567;28;20051;-74
2022/10/27 14:17:57;;;;;;;8.32;2.60;;;;;;;;;;5049996;28;20445;-76
2022/10/27 14:20:36;;;;;;;6.88;2.42;;;;;;;;;;5050693;28;20041;-76
2022/10/27 14:23:12;;;;;;;7.03;2.80;;;;;;;;;;5047478;28;20044;-79
2022/10/27 14:25:37;;;;;;;7.03;2.90;;;;;;;;;;5049827;28;20079;-74
2022/10/27 14:28:14;;;;;;;13.32;3.33;;;;;;;;;;5040728;28;20061;-85
2022/10/27 14:30:41;;;;;;;13.02;3.53;;;;;;;;;;5052813;28;20045;-76
2022/10/27 14:33:17;;;;;;;6.45;2.78;;;;;;;;;;5047060;28;20052;-77
2022/10/27 14:35:42;;;;;;;7.45;3.20;;;;;;;;;;5050436;28;20068;-82
2022/10/27 14:38:17;;;;;;;8.90;3.00;;;;;;;;;;5049839;28;20098;-78
2022/10/27 14:40:44;;;;;;;8.45;2.80;;;;;;;;;;5049813;28;20033;-76
2022/10/27 14:43:18;;;;;;;13.93;3.25;;;;;;;;;;5047533;28;20515;-77
2022/10/27 14:45:45;;;;;;;21.98;3.95;;;;;;;;;;5069673;28;20119;-76
2022/10/27 14:48:21;;;;;;;6.25;2.72;;;;;;;;;;5063165;28;20025;-75
2022/10/27 14:50:46;;;;;;;9.10;3.30;;;;;;;;;;5049351;28;20052;-76
2022/10/27 14:53:23;;;;;;;9.52;3.50;;;;;;;;;;5036860;28;20083;-75
2022/10/27 14:56:15;;;;;;;5.90;2.75;;;;;;;;;;5044643;28;20422;-76
2022/10/27 14:58:49;;;;;;;8.57;3.20;;;;;;;;;;5037743;28;20037;-76
2022/10/27 15:01:18;;;;;;;;;;;;;;;;;;5061703;28;20037;-77
2022/10/27 15:03:44;;;;;;;10.45;3.10;;;;;;;;;;5069142;28;19962;-76